Time;durP1;ratioP1;P1;durP2;ratioP2;P2;SDS_P1;SDS_P2;PMS_P1;PMS_P2;Temp;Humidity;BMP_temperature;BMP_pressure;BME280_temperature;BME280_humidity;BME280_pressure;Samples;Min_cycle;Max_cycle;Signal;HPM_P1;HPM_P2
2022/10/19 00:02:07;;;;;;;3.95;2.17;;;15.80;99.90;;;;;;5075666;28;20536;-66
2022/10/19 00:04:33;;;;;;;3.60;1.83;;;15.80;99.90;;;;;;5075904;28;20170;-66
2022/10/19 00:06:59;;;;;;;2.58;1.67;;;15.70;99.90;;;;;;5075766;28;20028;-66
2022/10/19 00:09:25;;;;;;;4.35;1.63;;;15.60;99.90;;;;;;5075847;28;20159;-66
2022/10/19 00:11:51;;;;;;;3.38;1.90;;;15.60;99.90;;;;;;5075410;28;20090;-67
2022/10/19 00:14:20;;;;;;;3.38;1.83;;;15.60;99.90;;;;;;5075547;28;20102;-66
2022/10/19 00:16:48;;;;;;;1.67;1.50;;;15.80;99.90;;;;;;5074795;28;20064;-66
2022/10/19 00:19:23;;;;;;;3.30;1.48;;;15.70;99.90;;;;;;5075527;28;20041;-66
2022/10/19 00:21:49;;;;;;;4.07;1.98;;;15.60;99.90;;;;;;5075580;28;20484;-67
2022/10/19 00:24:15;;;;;;;6.45;2.42;;;15.60;99.90;;;;;;5075372;28;20032;-67
2022/10/19 00:26:41;;;;;;;5.05;1.70;;;15.70;99.90;;;;;;5075562;28;20045;-66
2022/10/19 00:29:07;;;;;;;3.75;2.00;;;15.70;99.90;;;;;;5075151;28;20043;-66
2022/10/19 00:31:33;;;;;;;4.25;1.92;;;15.50;99.90;;;;;;5074786;28;20392;-67
2022/10/19 00:33:59;;;;;;;2.65;1.70;;;15.80;99.90;;;;;;5075042;28;20029;-66
2022/10/19 00:36:30;;;;;;;2.83;1.88;;;15.80;99.90;;;;;;5075100;28;20050;-66
2022/10/19 00:38:57;;;;;;;5.53;1.77;;;15.50;99.90;;;;;;5074980;28;20391;-66
2022/10/19 00:41:24;;;;;;;2.22;1.60;;;15.80;99.90;;;;;;5074645;28;20040;-67
2022/10/19 00:43:57;;;;;;;2.95;1.50;;;15.60;99.90;;;;;;5068301;28;20044;-67
2022/10/19 00:46:24;;;;;;;3.97;2.13;;;15.60;99.90;;;;;;5052976;28;20076;-66
2022/10/19 00:48:53;;;;;;;5.68;1.90;;;15.50;99.90;;;;;;5052965;28;20508;-67
2022/10/19 00:51:19;;;;;;;3.22;1.90;;;15.50;99.90;;;;;;5053589;28;20052;-66
2022/10/19 00:53:45;;;;;;;3.55;1.90;;;15.40;99.90;;;;;;5054735;28;20033;-66
2022/10/19 00:56:13;;;;;;;8.13;2.00;;;15.40;99.90;;;;;;5054855;28;20044;-66
2022/10/19 00:58:41;;;;;;;5.60;2.08;;;15.40;99.90;;;;;;5053706;28;20072;-67
2022/10/19 01:01:09;;;;;;;7.40;2.17;;;15.20;99.90;;;;;;5054763;28;20124;-67
2022/10/19 01:03:35;;;;;;;4.55;2.22;;;15.20;99.90;;;;;;5054646;28;20040;-67
2022/10/19 01:06:01;;;;;;;3.75;1.60;;;15.10;99.90;;;;;;5054730;28;20036;-67
2022/10/19 01:08:28;;;;;;;3.10;1.75;;;15.20;99.90;;;;;;5070478;28;20487;-66
2022/10/19 01:11:26;;;;;;;6.30;2.20;;;15.30;99.90;;;;;;5074411;28;20079;-67
2022/10/19 01:14:07;;;;;;;6.72;2.10;;;15.30;99.90;;;;;;5074451;28;20053;-67
2022/10/19 01:16:53;;;;;;;4.35;2.10;;;15.30;99.90;;;;;;5074299;28;20071;-67
2022/10/19 01:19:59;;;;;;;4.50;2.08;;;15.10;99.90;;;;;;5062930;28;20127;-67
2022/10/19 01:23:02;;;;;;;4.30;2.45;;;14.80;99.90;;;;;;5074388;28;20064;-67
2022/10/19 01:25:55;;;;;;;4.43;2.33;;;14.70;99.90;;;;;;5073914;28;20554;-66
2022/10/19 01:28:39;;;;;;;4.18;1.90;;;14.90;99.90;;;;;;5074061;28;20118;-67
2022/10/19 01:31:26;;;;;;;4.10;2.03;;;14.70;99.90;;;;;;5074153;28;20460;-66
2022/10/19 01:33:52;;;;;;;3.05;1.88;;;14.90;99.90;;;;;;5074020;28;20043;-66
2022/10/19 01:36:33;;;;;;;3.72;1.85;;;15.00;99.90;;;;;;5074167;28;20036;-66
2022/10/19 01:39:07;;;;;;;3.03;1.88;;;14.90;99.90;;;;;;5074323;28;20433;-66
2022/10/19 01:41:43;;;;;;;4.43;2.38;;;14.80;99.90;;;;;;5074145;28;20072;-66
2022/10/19 01:44:16;;;;;;;3.90;2.10;;;14.70;99.90;;;;;;5074023;28;20044;-67
2022/10/19 01:46:48;;;;;;;4.55;2.10;;;14.60;99.90;;;;;;5074147;28;20048;-66
2022/10/19 01:49:53;;;;;;;3.95;2.15;;;14.70;99.90;;;;;;5074117;28;20048;-67
2022/10/19 01:52:20;;;;;;;6.60;2.30;;;14.50;99.90;;;;;;5062539;28;20480;-67
2022/10/19 01:54:50;;;;;;;7.18;2.72;;;14.40;99.90;;;;;;5073878;28;20048;-66
2022/10/19 01:57:28;;;;;;;3.08;2.17;;;14.50;99.90;;;;;;5074028;28;20528;-65
2022/10/19 01:59:56;;;;;;;4.00;2.08;;;14.50;99.90;;;;;;5073798;28;20495;-66
2022/10/19 02:02:25;;;;;;;2.90;1.92;;;14.50;99.90;;;;;;5073730;28;20060;-65
2022/10/19 02:04:55;;;;;;;4.72;2.78;;;14.60;99.90;;;;;;5073750;28;20526;-67
2022/10/19 02:07:23;;;;;;;3.03;2.20;;;14.70;99.90;;;;;;5073592;28;20043;-67
2022/10/19 02:09:49;;;;;;;6.50;2.90;;;14.90;99.90;;;;;;5075248;28;20457;-67
2022/10/19 02:12:15;;;;;;;4.30;2.83;;;14.70;99.90;;;;;;5077997;28;20067;-66
2022/10/19 02:14:44;;;;;;;4.82;2.70;;;14.80;99.90;;;;;;5078010;28;20528;-67
2022/10/19 02:17:20;;;;;;;7.47;2.58;;;14.90;99.90;;;;;;5077886;28;20040;-67
2022/10/19 02:19:46;;;;;;;6.25;2.40;;;14.70;99.90;;;;;;5077736;28;20474;-67
2022/10/19 02:22:12;;;;;;;4.63;2.70;;;14.50;99.90;;;;;;5077770;28;20067;-67
2022/10/19 02:24:38;;;;;;;3.92;2.40;;;14.40;99.90;;;;;;5077887;28;20175;-66
2022/10/19 02:27:06;;;;;;;5.95;2.70;;;14.50;99.90;;;;;;5077674;28;20072;-67
2022/10/19 02:29:33;;;;;;;4.38;2.45;;;14.50;99.90;;;;;;5077727;28;20048;-66
2022/10/19 02:31:59;;;;;;;5.82;2.75;;;14.60;99.90;;;;;;5077616;28;20040;-67
2022/10/19 02:34:26;;;;;;;5.32;3.08;;;14.60;99.90;;;;;;5076079;28;20032;-66
2022/10/19 02:36:52;;;;;;;8.43;3.38;;;14.70;99.90;;;;;;5077244;28;20040;-67
2022/10/19 02:39:18;;;;;;;6.82;3.55;;;14.80;99.90;;;;;;5077522;28;20071;-67
2022/10/19 02:41:57;;;;;;;5.85;3.03;;;14.90;99.90;;;;;;5077427;28;20044;-67
2022/10/19 02:44:30;;;;;;;6.55;3.17;;;15.00;99.90;;;;;;5077413;28;20503;-67
2022/10/19 02:47:16;;;;;;;6.78;3.05;;;15.00;99.90;;;;;;5077095;28;20044;-66
2022/10/19 02:49:43;;;;;;;9.13;3.25;;;15.00;99.90;;;;;;5077161;28;20051;-68
2022/10/19 02:52:11;;;;;;;6.90;3.05;;;15.00;99.90;;;;;;5077292;28;20044;-67
2022/10/19 02:54:39;;;;;;;7.53;3.50;;;15.10;99.90;;;;;;5076992;28;20086;-67
2022/10/19 02:57:15;;;;;;;4.00;2.70;;;14.90;99.90;;;;;;5076999;28;20071;-67
2022/10/19 02:59:40;;;;;;;6.55;3.35;;;14.90;99.90;;;;;;5077155;28;20508;-67
2022/10/19 03:02:06;;;;;;;6.45;3.30;;;14.90;99.90;;;;;;5076874;28;20064;-66
2022/10/19 03:04:32;;;;;;;6.07;2.95;;;15.00;99.90;;;;;;5077046;28;20120;-67
2022/10/19 03:06:58;;;;;;;6.38;2.92;;;14.80;99.90;;;;;;5076697;28;20044;-66
2022/10/19 03:09:23;;;;;;;4.53;3.10;;;14.80;99.90;;;;;;5076650;28;20634;-67
2022/10/19 03:11:49;;;;;;;4.47;2.65;;;14.60;99.90;;;;;;5076604;28;20037;-67
2022/10/19 03:14:15;;;;;;;6.45;3.10;;;;;;;;;;5076837;28;20040;-67
2022/10/19 03:16:41;;;;;;;4.10;2.95;;;15.00;99.90;;;;;;5076750;28;20043;-67
2022/10/19 03:19:07;;;;;;;6.13;2.75;;;15.10;99.90;;;;;;5076638;28;20044;-66
2022/10/19 03:21:33;;;;;;;6.93;3.25;;;15.10;99.90;;;;;;5075443;28;20504;-66
2022/10/19 03:23:59;;;;;;;6.22;3.03;;;14.90;99.90;;;;;;5076471;28;20040;-65
2022/10/19 03:26:26;;;;;;;4.82;2.50;;;14.60;99.90;;;;;;5076072;28;20032;-65
2022/10/19 03:28:52;;;;;;;7.43;3.08;;;14.50;99.90;;;;;;5076241;28;20507;-67
2022/10/19 03:31:18;;;;;;;5.65;2.80;;;14.40;99.90;;;;;;5076267;28;20048;-67
2022/10/19 03:33:44;;;;;;;6.40;2.30;;;14.40;99.90;;;;;;5076430;28;20082;-67
2022/10/19 03:36:18;;;;;;;5.53;2.30;;;14.40;99.90;;;;;;5076463;28;21022;-67
2022/10/19 03:38:43;;;;;;;5.35;2.90;;;14.40;99.90;;;;;;5076353;28;20075;-67
2022/10/19 03:41:10;;;;;;;10.40;2.88;;;14.50;99.90;;;;;;5076226;28;20056;-67
2022/10/19 03:43:35;;;;;;;10.40;2.30;;;14.40;99.90;;;;;;5076372;28;20163;-65
2022/10/19 03:46:01;;;;;;;5.88;2.72;;;14.50;99.90;;;;;;5076164;28;20503;-67
2022/10/19 03:48:27;;;;;;;5.32;2.65;;;14.60;99.90;;;;;;5076120;28;20078;-67
2022/10/19 03:51:10;;;;;;;7.25;2.60;;;14.70;99.90;;;;;;5075949;28;20105;-66
2022/10/19 03:53:36;;;;;;;7.35;3.08;;;14.70;99.90;;;;;;5076016;28;20483;-67
2022/10/19 03:56:08;;;;;;;6.78;2.53;;;14.70;99.90;;;;;;5074555;28;20052;-67
2022/10/19 03:58:35;;;;;;;5.30;3.20;;;14.70;99.90;;;;;;5074479;28;20526;-65
2022/10/19 04:01:05;;;;;;;7.78;2.58;;;14.70;99.90;;;;;;5073291;28;20132;-68
2022/10/19 04:03:31;;;;;;;4.60;2.70;;;14.70;99.90;;;;;;5075462;28;20496;-67
2022/10/19 04:06:05;;;;;;;6.97;2.90;;;14.70;99.90;;;;;;5074699;28;20035;-65
2022/10/19 04:08:33;;;;;;;5.40;3.08;;;14.70;99.90;;;;;;5075883;28;20123;-67
2022/10/19 04:11:04;;;;;;;3.85;2.65;;;14.70;99.90;;;;;;5074368;28;20404;-67
2022/10/19 04:13:29;;;;;;;;;;;14.70;99.90;;;;;;5076146;28;20488;-67
2022/10/19 04:15:56;;;;;;;4.35;2.92;;;14.70;99.90;;;;;;5075536;28;19933;-65
2022/10/19 04:18:21;;;;;;;6.32;3.22;;;14.60;99.90;;;;;;5075443;28;20036;-67
2022/10/19 04:20:47;;;;;;;5.38;2.97;;;14.60;99.90;;;;;;5075635;28;20375;-67
2022/10/19 04:23:13;;;;;;;8.98;3.20;;;14.60;99.90;;;;;;5075578;28;20040;-67
2022/10/19 04:25:39;;;;;;;6.28;3.45;;;14.60;99.90;;;;;;5075402;28;20447;-68
2022/10/19 04:28:04;;;;;;;8.80;3.80;;;14.50;99.90;;;;;;5075158;28;20064;-66
2022/10/19 04:30:30;;;;;;;6.78;3.70;;;14.50;99.90;;;;;;5075223;28;20040;-67
2022/10/19 04:33:14;;;;;;;5.13;3.03;;;14.60;99.90;;;;;;5075153;28;20074;-67
2022/10/19 04:35:40;;;;;;;7.20;3.72;;;14.50;99.90;;;;;;5075287;28;20040;-67
2022/10/19 04:38:05;;;;;;;6.68;3.67;;;14.60;99.90;;;;;;5074952;28;20040;-67
2022/10/19 04:40:34;;;;;;;8.30;3.53;;;14.60;99.90;;;;;;5075069;28;20557;-67
2022/10/19 04:43:00;;;;;;;8.43;2.80;;;14.60;99.90;;;;;;5075072;28;20032;-67
2022/10/19 04:45:25;;;;;;;14.85;3.65;;;14.50;99.90;;;;;;5074908;28;20044;-67
2022/10/19 04:47:53;;;;;;;8.13;3.65;;;14.50;99.90;;;;;;5074765;28;20032;-67
2022/10/19 04:50:18;;;;;;;5.75;3.70;;;14.50;99.90;;;;;;5069208;28;20562;-67
2022/10/19 04:52:44;;;;;;;8.95;4.70;;;14.60;99.90;;;;;;5052656;28;20041;-67
2022/10/19 04:55:10;;;;;;;8.45;4.00;;;14.40;99.90;;;;;;5052540;28;20036;-67
2022/10/19 04:57:36;;;;;;;8.30;3.72;;;14.50;99.90;;;;;;5068638;28;20094;-67
2022/10/19 05:00:03;;;;;;;12.70;4.15;;;14.50;99.90;;;;;;5074662;28;20523;-67
2022/10/19 05:02:28;;;;;;;8.75;3.53;;;14.50;99.90;;;;;;5074932;28;20040;-67
2022/10/19 05:04:54;;;;;;;11.57;4.70;;;14.50;99.90;;;;;;5074542;28;20567;-65
2022/10/19 05:07:20;;;;;;;6.25;3.97;;;14.40;99.90;;;;;;5074449;28;20036;-66
2022/10/19 05:09:45;;;;;;;7.90;4.85;;;14.40;99.90;;;;;;5074363;28;20158;-67
2022/10/19 05:12:11;;;;;;;6.78;4.18;;;14.40;99.90;;;;;;5074449;28;20396;-68
2022/10/19 05:14:37;;;;;;;8.10;4.78;;;14.40;99.90;;;;;;5074012;28;20045;-65
2022/10/19 05:17:02;;;;;;;10.85;4.32;;;14.40;99.90;;;;;;5074062;28;20033;-65
2022/10/19 05:19:28;;;;;;;9.10;5.35;;;14.30;99.90;;;;;;5074270;28;20036;-67
2022/10/19 05:21:54;;;;;;;7.10;4.50;;;14.30;99.90;;;;;;5074444;28;20064;-65
2022/10/19 05:24:20;;;;;;;8.68;4.82;;;14.20;99.90;;;;;;5074045;28;20048;-67
2022/10/19 05:26:45;;;;;;;9.15;4.18;;;14.30;99.90;;;;;;5074239;28;20043;-67
2022/10/19 05:29:12;;;;;;;10.40;5.07;;;14.30;99.90;;;;;;5072618;28;20131;-65
2022/10/19 05:31:39;;;;;;;8.57;4.30;;;14.30;99.90;;;;;;5072028;28;20408;-68
2022/10/19 05:34:05;;;;;;;10.07;5.22;;;14.30;99.90;;;;;;5071879;28;20051;-67
2022/10/19 05:36:40;;;;;;;9.27;5.72;;;14.30;99.90;;;;;;5071583;28;20060;-68
2022/10/19 05:39:11;;;;;;;9.07;5.50;;;14.30;99.90;;;;;;5072153;28;20048;-67
2022/10/19 05:41:37;;;;;;;10.73;4.93;;;14.30;99.90;;;;;;5072692;28;20543;-68
2022/10/19 05:44:04;;;;;;;9.68;5.57;;;14.20;99.90;;;;;;5072386;28;20044;-68
2022/10/19 05:46:31;;;;;;;12.80;5.40;;;14.20;99.90;;;;;;5073207;28;20365;-68
2022/10/19 05:48:58;;;;;;;9.35;4.75;;;14.20;99.90;;;;;;5072912;28;20063;-65
2022/10/19 05:51:25;;;;;;;10.63;5.70;;;14.20;99.90;;;;;;5071753;28;20048;-66
2022/10/19 05:53:53;;;;;;;13.13;5.18;;;14.20;99.90;;;;;;5071816;28;20040;-65
2022/10/19 05:56:22;;;;;;;11.95;5.15;;;14.10;99.90;;;;;;5072244;28;20044;-68
2022/10/19 05:58:48;;;;;;;14.73;6.10;;;14.10;99.90;;;;;;5073221;28;20036;-67
2022/10/19 06:01:17;;;;;;;11.73;5.30;;;14.10;99.90;;;;;;5070652;28;20404;-67
2022/10/19 06:03:43;;;;;;;14.02;5.53;;;14.10;99.90;;;;;;5071955;28;20041;-66
2022/10/19 06:06:09;;;;;;;8.68;5.28;;;14.10;99.90;;;;;;5071834;28;20037;-66
2022/10/19 06:08:36;;;;;;;15.73;5.90;;;14.20;99.90;;;;;;5071867;28;20044;-66
2022/10/19 06:11:13;;;;;;;11.30;5.97;;;14.20;99.90;;;;;;5070912;28;20131;-67
2022/10/19 06:13:40;;;;;;;8.05;5.15;;;14.10;99.90;;;;;;5071569;28;20579;-67
2022/10/19 06:16:07;;;;;;;10.50;5.93;;;14.20;99.90;;;;;;5071675;28;20047;-67
2022/10/19 06:18:33;;;;;;;10.13;5.20;;;14.20;99.90;;;;;;5073015;28;20043;-67
2022/10/19 06:21:07;;;;;;;14.40;6.30;;;14.10;99.90;;;;;;5072846;28;20052;-67
2022/10/19 06:23:34;;;;;;;13.75;5.38;;;14.20;99.90;;;;;;5072665;28;20040;-67
2022/10/19 06:26:08;;;;;;;9.43;5.20;;;14.20;99.90;;;;;;5072565;28;20036;-66
2022/10/19 06:28:35;;;;;;;10.57;5.22;;;14.20;99.90;;;;;;5073663;28;20068;-68
2022/10/19 06:31:02;;;;;;;9.48;5.25;;;14.20;99.90;;;;;;5072227;28;20143;-69
2022/10/19 06:33:31;;;;;;;11.38;5.15;;;14.20;99.90;;;;;;5073367;28;20047;-68
2022/10/19 06:36:21;;;;;;;9.15;4.82;;;14.30;99.90;;;;;;5073389;28;20477;-68
2022/10/19 06:38:48;;;;;;;9.70;5.13;;;14.30;99.90;;;;;;5070480;28;20047;-69
2022/10/19 06:41:13;;;;;;;8.43;5.00;;;14.40;99.90;;;;;;5073406;28;20040;-69
2022/10/19 06:43:41;;;;;;;10.82;5.57;;;14.40;99.90;;;;;;5072587;28;20036;-68
2022/10/19 06:46:11;;;;;;;12.18;5.60;;;14.60;99.90;;;;;;5071589;28;20131;-65
2022/10/19 06:48:38;;;;;;;9.77;5.25;;;14.70;99.90;;;;;;5071322;28;20040;-67
2022/10/19 06:51:06;;;;;;;9.75;4.68;;;14.80;99.90;;;;;;5071306;28;20049;-68
2022/10/19 06:53:33;;;;;;;11.60;4.50;;;14.90;99.90;;;;;;5071792;28;20036;-68
2022/10/19 06:56:00;;;;;;;12.52;4.20;;;14.90;99.90;;;;;;5073546;28;20052;-69
2022/10/19 06:58:27;;;;;;;7.75;5.15;;;15.00;99.90;;;;;;5076125;28;20079;-69
2022/10/19 07:00:57;;;;;;;9.75;4.72;;;15.20;99.90;;;;;;5076666;28;20040;-68
2022/10/19 07:03:24;;;;;;;8.23;4.28;;;15.20;99.90;;;;;;5077140;28;20028;-64
2022/10/19 07:05:54;;;;;;;6.78;4.53;;;15.20;99.90;;;;;;5076924;28;20047;-68
2022/10/19 07:08:20;;;;;;;10.23;4.18;;;15.50;99.90;;;;;;5076750;28;20085;-68
2022/10/19 07:10:54;;;;;;;10.25;4.07;;;15.70;99.90;;;;;;5076792;28;20524;-68
2022/10/19 07:13:21;;;;;;;6.95;3.90;;;15.80;99.90;;;;;;5076857;28;20035;-68
2022/10/19 07:15:47;;;;;;;7.88;3.47;;;16.30;99.90;;;;;;5076343;28;20068;-68
2022/10/19 07:18:13;;;;;;;9.15;4.38;;;16.60;99.90;;;;;;5076696;28;20060;-68
2022/10/19 07:20:38;;;;;;;8.48;4.50;;;16.70;99.90;;;;;;5076776;28;20036;-68
2022/10/19 07:23:05;;;;;;;8.60;4.22;;;16.90;99.90;;;;;;5076728;28;20044;-67
2022/10/19 07:25:31;;;;;;;9.02;3.80;;;17.00;99.90;;;;;;5076598;28;20052;-68
2022/10/19 07:27:56;;;;;;;9.95;4.65;;;17.10;99.90;;;;;;5076382;28;20412;-64
2022/10/19 07:30:23;;;;;;;8.75;3.80;;;17.20;99.90;;;;;;5076463;28;20484;-70
2022/10/19 07:32:49;;;;;;;8.30;3.80;;;17.10;99.90;;;;;;5076659;28;20039;-69
2022/10/19 07:35:14;;;;;;;8.70;3.63;;;17.10;99.90;;;;;;5076468;28;20127;-69
2022/10/19 07:37:40;;;;;;;8.50;3.38;;;17.00;99.90;;;;;;5076419;28;20396;-69
2022/10/19 07:40:15;;;;;;;10.25;3.92;;;17.10;99.90;;;;;;5076335;28;20110;-69
2022/10/19 07:42:41;;;;;;;5.60;3.42;;;17.60;99.90;;;;;;5076254;28;20044;-69
2022/10/19 07:45:07;;;;;;;13.27;4.10;;;17.60;99.90;;;;;;5076181;28;20438;-69
2022/10/19 07:47:33;;;;;;;7.38;3.50;;;17.40;99.90;;;;;;5076136;28;20086;-70
2022/10/19 07:49:59;;;;;;;8.45;3.70;;;17.50;99.90;;;;;;5076121;28;20098;-69
2022/10/19 07:52:24;;;;;;;8.43;4.55;;;17.90;99.90;;;;;;5076193;28;20044;-68
2022/10/19 07:54:51;;;;;;;9.18;3.42;;;18.20;99.90;;;;;;5076197;28;20047;-70
2022/10/19 07:57:17;;;;;;;4.60;3.50;;;18.30;99.90;;;;;;5075919;28;20165;-69
2022/10/19 07:59:42;;;;;;;9.60;3.78;;;18.60;99.90;;;;;;5076022;28;20111;-69
2022/10/19 08:02:15;;;;;;;8.93;3.95;;;18.60;99.90;;;;;;5076041;28;20488;-70
2022/10/19 08:04:41;;;;;;;11.32;3.65;;;18.60;99.90;;;;;;5076062;28;20376;-69
2022/10/19 08:07:07;;;;;;;9.30;3.58;;;18.80;99.90;;;;;;5075463;28;20036;-70
2022/10/19 08:09:32;;;;;;;8.48;3.63;;;18.80;99.90;;;;;;5075834;28;20555;-69
2022/10/19 08:11:58;;;;;;;10.10;4.63;;;19.00;99.90;;;;;;5075724;28;20052;-69
2022/10/19 08:14:25;;;;;;;6.07;3.58;;;18.70;99.90;;;;;;5075816;28;20067;-69
2022/10/19 08:16:50;;;;;;;8.65;3.38;;;18.40;99.90;;;;;;5075654;28;20101;-69
2022/10/19 08:19:16;;;;;;;8.18;3.95;;;18.60;99.90;;;;;;5075783;28;20037;-69
2022/10/19 08:21:45;;;;;;;5.85;3.55;;;18.70;99.90;;;;;;5075545;28;20040;-70
2022/10/19 08:24:13;;;;;;;8.25;4.28;;;19.00;99.90;;;;;;5074244;28;20032;-69
2022/10/19 08:26:39;;;;;;;11.75;4.97;;;18.60;99.90;;;;;;5075415;28;20051;-70
2022/10/19 08:29:09;;;;;;;12.00;4.70;;;18.90;99.90;;;;;;5075098;28;20530;-65
2022/10/19 08:31:35;;;;;;;7.18;4.22;;;18.90;99.90;;;;;;5075509;28;20083;-70
2022/10/19 08:34:01;;;;;;;8.10;4.22;;;18.40;99.90;;;;;;5075370;28;20060;-67
2022/10/19 08:36:30;;;;;;;8.20;4.70;;;18.00;99.90;;;;;;5075275;28;20532;-66
2022/10/19 08:38:58;;;;;;;10.10;4.50;;;17.70;99.90;;;;;;5075075;28;20028;-68
2022/10/19 08:41:39;;;;;;;9.10;4.32;;;17.80;99.90;;;;;;5075039;28;20048;-67
2022/10/19 08:44:46;;;;;;;7.78;4.28;;;18.30;99.90;;;;;;5075142;28;20033;-68
2022/10/19 08:47:33;;;;;;;7.05;4.30;;;18.30;99.90;;;;;;5074942;28;20078;-66
2022/10/19 08:49:59;;;;;;;8.48;4.10;;;18.20;99.90;;;;;;5074944;28;20054;-67
2022/10/19 08:52:34;;;;;;;4.68;3.60;;;18.40;99.90;;;;;;5074958;28;20115;-66
2022/10/19 08:55:12;;;;;;;8.98;4.18;;;18.50;99.90;;;;;;5073107;28;20067;-67
2022/10/19 08:58:07;;;;;;;7.38;3.90;;;18.90;99.90;;;;;;5063156;28;20040;-67
2022/10/19 09:00:51;;;;;;;9.82;3.63;;;19.00;99.90;;;;;;5044999;28;20465;-67
2022/10/19 09:03:43;;;;;;;7.70;3.55;;;19.10;99.90;;;;;;5054769;28;20115;-67
2022/10/19 09:06:33;;;;;;;7.50;4.05;;;19.20;99.90;;;;;;5054384;28;20110;-67
2022/10/19 09:08:58;;;;;;;8.93;4.00;;;18.70;99.90;;;;;;5054504;28;20449;-67
2022/10/19 09:11:28;;;;;;;8.10;4.22;;;18.40;99.90;;;;;;5054576;28;20124;-65
2022/10/19 09:14:05;;;;;;;11.98;3.85;;;18.60;99.90;;;;;;5054476;28;20033;-65
2022/10/19 09:16:32;;;;;;;10.13;3.55;;;18.80;99.90;;;;;;5054419;28;20582;-65
2022/10/19 09:18:57;;;;;;;6.03;3.28;;;19.00;99.90;;;;;;5066597;28;20033;-68
2022/10/19 09:21:39;;;;;;;6.88;3.70;;;19.30;99.90;;;;;;5066751;28;20146;-66
2022/10/19 09:24:14;;;;;;;7.43;4.03;;;19.10;99.90;;;;;;5054032;28;20044;-65
2022/10/19 09:26:53;;;;;;;9.05;3.80;;;19.10;99.90;;;;;;5070281;28;20400;-67
2022/10/19 09:29:43;;;;;;;5.30;3.38;;;19.60;99.90;;;;;;5069637;28;20045;-67
2022/10/19 09:32:22;;;;;;;6.35;4.05;;;19.70;99.90;;;;;;5071500;28;20040;-68
2022/10/19 09:34:52;;;;;;;12.82;4.72;;;19.50;99.90;;;;;;5071103;28;20121;-68
2022/10/19 09:40:40;;;;;;;11.63;4.68;;;19.60;99.90;;;;;;5071671;28;20514;-67
2022/10/19 09:43:19;;;;;;;11.40;4.60;;;19.40;99.90;;;;;;5071596;28;20036;-65
2022/10/19 09:45:50;;;;;;;10.40;3.88;;;19.40;99.90;;;;;;5071412;28;20048;-65
2022/10/19 09:48:34;;;;;;;6.72;4.38;;;19.40;99.90;;;;;;5071048;28;20028;-65
2022/10/19 09:51:02;;;;;;;11.40;5.05;;;19.30;99.90;;;;;;5071960;28;20083;-67
2022/10/19 09:53:29;;;;;;;7.18;3.63;;;19.30;99.90;;;;;;5071952;28;20117;-67
2022/10/19 09:56:01;;;;;;;8.45;4.53;;;19.10;99.90;;;;;;5071580;28;20453;-67
2022/10/19 09:58:28;;;;;;;9.63;4.15;;;19.20;99.90;;;;;;5071223;28;20484;-67
2022/10/19 10:00:55;;;;;;;12.05;4.63;;;19.90;99.90;;;;;;5071737;28;20045;-68
2022/10/19 10:03:39;;;;;;;11.18;4.43;;;19.90;99.90;;;;;;5072167;28;20044;-68
2022/10/19 10:06:12;;;;;;;9.77;4.80;;;19.40;99.90;;;;;;5072113;28;20134;-67
2022/10/19 10:08:44;;;;;;;10.57;4.45;;;19.40;99.90;;;;;;5071994;28;20040;-67
2022/10/19 10:11:13;;;;;;;8.75;4.50;;;19.50;99.90;;;;;;5072575;28;20048;-67
2022/10/19 10:14:35;;;;;;;12.63;4.70;;;19.40;99.90;;;;;;5071337;28;20388;-68
2022/10/19 10:17:07;;;;;;;10.23;4.18;;;19.30;99.90;;;;;;5071628;28;20439;-67
2022/10/19 10:19:34;;;;;;;10.63;4.20;;;19.10;99.90;;;;;;5071920;28;20081;-66
2022/10/19 10:22:03;;;;;;;9.18;4.00;;;19.00;99.90;;;;;;5071786;28;20496;-67
2022/10/19 10:24:31;;;;;;;8.32;3.95;;;19.00;99.90;;;;;;5071720;28;20041;-66
2022/10/19 10:26:59;;;;;;;11.93;5.28;;;18.60;99.90;;;;;;5071554;28;20044;-66
2022/10/19 10:29:26;;;;;;;10.93;3.90;;;18.60;99.90;;;;;;5072621;28;20048;-67
2022/10/19 10:31:55;;;;;;;6.50;3.75;;;18.40;99.90;;;;;;5074500;28;20535;-67
2022/10/19 10:34:30;;;;;;;8.95;4.35;;;18.60;99.90;;;;;;5075204;28;20049;-66
2022/10/19 10:36:57;;;;;;;10.40;4.53;;;18.80;99.90;;;;;;5075341;28;20070;-67
2022/10/19 10:39:25;;;;;;;10.98;5.07;;;18.80;99.90;;;;;;5076127;28;20032;-66
2022/10/19 10:41:52;;;;;;;13.80;4.35;;;18.70;99.90;;;;;;5076969;28;20131;-66
2022/10/19 10:44:25;;;;;;;9.30;4.18;;;18.60;99.90;;;;;;5076921;28;20119;-66
2022/10/19 10:46:55;;;;;;;15.65;5.10;;;18.50;99.90;;;;;;5076862;28;20044;-66
2022/10/19 10:49:25;;;;;;;8.38;4.28;;;18.60;99.90;;;;;;5075542;28;20044;-66
2022/10/19 10:51:55;;;;;;;11.50;5.17;;;18.60;99.90;;;;;;5074907;28;20392;-66
2022/10/19 10:54:24;;;;;;;10.65;5.20;;;18.80;99.90;;;;;;5074592;28;20044;-66
2022/10/19 10:57:11;;;;;;;14.30;5.53;;;18.90;99.90;;;;;;5074933;28;20123;-66
2022/10/19 10:59:48;;;;;;;12.13;4.70;;;19.00;99.90;;;;;;5074032;28;20530;-66
2022/10/19 11:02:45;;;;;;;13.32;5.00;;;18.90;99.90;;;;;;5074278;28;20107;-66
2022/10/19 11:05:25;;;;;;;9.93;4.70;;;18.80;99.90;;;;;;5074586;28;20036;-65
2022/10/19 11:08:23;;;;;;;11.38;4.50;;;18.90;99.90;;;;;;5074519;28;20040;-66
2022/10/19 11:11:12;;;;;;;11.05;3.95;;;19.10;99.90;;;;;;5057619;28;20434;-66
2022/10/19 11:13:38;;;;;;;6.28;4.35;;;19.20;99.90;;;;;;5074463;28;20055;-67
2022/10/19 11:16:24;;;;;;;11.02;3.78;;;19.40;99.90;;;;;;5073857;28;20119;-66
2022/10/19 11:19:00;;;;;;;10.02;3.78;;;19.40;99.90;;;;;;5073896;28;20040;-66
2022/10/19 11:21:47;;;;;;;9.68;4.00;;;19.40;99.90;;;;;;5074083;28;20391;-66
2022/10/19 11:24:21;;;;;;;8.10;4.00;;;19.00;99.90;;;;;;5075466;28;20071;-66
2022/10/19 11:26:53;;;;;;;7.13;3.65;;;19.00;99.90;;;;;;5074262;28;20086;-66
2022/10/19 11:29:25;;;;;;;8.05;3.72;;;18.80;99.90;;;;;;5070087;28;20147;-65
2022/10/19 11:31:54;;;;;;;9.63;3.67;;;18.70;99.90;;;;;;5053850;28;20496;-66
2022/10/19 11:34:57;;;;;;;9.10;3.38;;;18.60;99.90;;;;;;5054100;28;20618;-66
2022/10/19 11:37:52;;;;;;;8.50;3.97;;;18.60;99.90;;;;;;5053734;28;20677;-68
2022/10/19 11:40:23;;;;;;;7.03;3.58;;;18.70;99.90;;;;;;5069126;28;20061;-65
2022/10/19 11:43:13;;;;;;;11.52;4.38;;;18.70;99.90;;;;;;5053183;28;20037;-67
2022/10/19 11:45:59;;;;;;;7.07;3.60;;;18.60;99.90;;;;;;5053889;28;20040;-67
2022/10/19 11:48:53;;;;;;;12.35;4.00;;;19.10;99.90;;;;;;5053180;28;20037;-66
2022/10/19 11:51:56;;;;;;;5.20;3.55;;;19.30;99.90;;;;;;5053664;28;20131;-67
2022/10/19 11:54:32;;;;;;;10.00;3.97;;;19.60;99.90;;;;;;5053538;28;20039;-66
2022/10/19 11:57:22;;;;;;;10.35;4.20;;;19.70;99.90;;;;;;5053947;28;20672;-66
2022/10/19 12:00:03;;;;;;;8.15;3.65;;;19.80;99.90;;;;;;5053203;28;20076;-66
2022/10/19 12:02:47;;;;;;;;;;;19.90;99.90;;;;;;5054545;28;20041;-66
2022/10/19 12:05:18;;;;;;;7.47;4.00;;;19.90;99.90;;;;;;5053323;28;19970;-66
2022/10/19 12:07:44;;;;;;;6.18;3.63;;;20.00;99.90;;;;;;5053635;28;20396;-66
2022/10/19 12:10:17;;;;;;;7.05;3.40;;;20.00;99.90;;;;;;5052746;28;20144;-66
2022/10/19 12:12:48;;;;;;;7.60;3.65;;;19.80;99.90;;;;;;5072955;28;20044;-65
2022/10/19 12:15:14;;;;;;;;;;;19.70;99.90;;;;;;5073158;28;20032;-65
2022/10/19 12:17:43;;;;;;;10.07;4.07;;;19.70;99.90;;;;;;5073392;28;20344;-66
2022/10/19 12:20:33;;;;;;;5.43;3.20;;;19.70;99.90;;;;;;5072631;28;20052;-66
2022/10/19 12:23:04;;;;;;;12.67;3.27;;;19.80;99.90;;;;;;5053457;28;20033;-65
2022/10/19 12:25:33;;;;;;;13.10;3.63;;;19.70;99.90;;;;;;5056057;28;20036;-65
2022/10/19 12:27:59;;;;;;;11.18;4.15;;;19.70;99.90;;;;;;5072795;28;20116;-66
2022/10/19 12:30:25;;;;;;;9.68;3.70;;;19.80;99.90;;;;;;5068354;28;20498;-65
2022/10/19 12:33:14;;;;;;;12.45;4.25;;;19.80;99.90;;;;;;5072286;28;20041;-66
2022/10/19 12:35:57;;;;;;;10.63;3.92;;;19.70;99.90;;;;;;5072577;28;20131;-66
2022/10/19 12:38:43;;;;;;;7.63;4.47;;;19.80;99.90;;;;;;5072061;28;20355;-67
2022/10/19 12:41:32;;;;;;;8.80;3.60;;;19.70;99.90;;;;;;5072134;28;20113;-66
2022/10/19 12:44:16;;;;;;;8.27;4.43;;;20.00;99.90;;;;;;5073062;28;20400;-66
2022/10/19 12:46:46;;;;;;;11.65;4.22;;;20.30;99.90;;;;;;5072549;28;20511;-66
2022/10/19 12:49:30;;;;;;;6.67;3.80;;;20.20;99.90;;;;;;5072533;28;20113;-65
2022/10/19 12:51:58;;;;;;;12.05;4.53;;;20.10;99.90;;;;;;5072947;28;20070;-66
2022/10/19 12:54:27;;;;;;;9.00;3.92;;;20.10;99.90;;;;;;5072350;28;20044;-66
2022/10/19 12:56:55;;;;;;;6.03;4.07;;;19.90;99.90;;;;;;5072155;28;20048;-66
2022/10/19 13:00:14;;;;;;;7.10;4.00;;;19.80;99.90;;;;;;5071094;28;20399;-65
2022/10/19 13:02:40;;;;;;;8.18;4.07;;;19.60;99.90;;;;;;5070082;28;20381;-66
2022/10/19 13:05:06;;;;;;;12.32;3.90;;;19.40;99.90;;;;;;5057778;28;20041;-66
2022/10/19 13:07:34;;;;;;;10.75;4.28;;;19.40;99.90;;;;;;5052647;28;20043;-67
2022/10/19 13:10:04;;;;;;;10.27;4.40;;;19.40;99.90;;;;;;5070012;28;20056;-67
2022/10/19 13:12:43;;;;;;;8.90;4.60;;;19.40;99.90;;;;;;5070997;28;20032;-66